sensor_id;sensor_type;location;lat;lon;timestamp;P1;durP1;ratioP1;P2;durP2;ratioP2
31910;SDS011;18457;52.432;16.914;2023-04-03T00:00:43;5.70;;;1.90;;
31910;SDS011;18457;52.432;16.914;2023-04-03T00:03:19;10.10;;;2.40;;
31910;SDS011;18457;52.432;16.914;2023-04-03T00:05:51;9.50;;;1.90;;
31910;SDS011;18457;52.432;16.914;2023-04-03T00:08:24;4.40;;;2.00;;
31910;SDS011;18457;52.432;16.914;2023-04-03T00:13:27;8.40;;;2.30;;
31910;SDS011;18457;52.432;16.914;2023-04-03T00:16:00;12.50;;;2.50;;
31910;SDS011;18457;52.432;16.914;2023-04-03T00:21:03;5.40;;;1.60;;
31910;SDS011;18457;52.432;16.914;2023-04-03T00:23:36;5.90;;;1.60;;
31910;SDS011;18457;52.432;16.914;2023-04-03T00:26:08;8.70;;;2.10;;
31910;SDS011;18457;52.432;16.914;2023-04-03T00:28:41;6.30;;;2.50;;
31910;SDS011;18457;52.432;16.914;2023-04-03T00:31:15;5.10;;;2.30;;
31910;SDS011;18457;52.432;16.914;2023-04-03T00:33:47;4.50;;;1.50;;
31910;SDS011;18457;52.432;16.914;2023-04-03T00:36:19;9.00;;;2.00;;
31910;SDS011;18457;52.432;16.914;2023-04-03T00:38:51;4.70;;;1.90;;
31910;SDS011;18457;52.432;16.914;2023-04-03T00:41:23;14.50;;;2.60;;
31910;SDS011;18457;52.432;16.914;2023-04-03T00:43:55;6.50;;;1.60;;
31910;SDS011;18457;52.432;16.914;2023-04-03T00:46:27;9.70;;;1.90;;
31910;SDS011;18457;52.432;16.914;2023-04-03T00:48:59;3.00;;;1.70;;
31910;SDS011;18457;52.432;16.914;2023-04-03T00:51:31;7.10;;;1.70;;
31910;SDS011;18457;52.432;16.914;2023-04-03T00:54:04;8.10;;;2.10;;
31910;SDS011;18457;52.432;16.914;2023-04-03T00:56:38;8.50;;;2.10;;
31910;SDS011;18457;52.432;16.914;2023-04-03T00:59:11;5.90;;;2.20;;
31910;SDS011;18457;52.432;16.914;2023-04-03T01:01:46;7.30;;;1.70;;
31910;SDS011;18457;52.432;16.914;2023-04-03T01:04:27;6.00;;;2.00;;
31910;SDS011;18457;52.432;16.914;2023-04-03T01:07:02;4.70;;;2.30;;
31910;SDS011;18457;52.432;16.914;2023-04-03T01:09:36;7.60;;;1.90;;
31910;SDS011;18457;52.432;16.914;2023-04-03T01:14:48;9.20;;;1.90;;
31910;SDS011;18457;52.432;16.914;2023-04-03T01:17:29;7.10;;;1.90;;
31910;SDS011;18457;52.432;16.914;2023-04-03T01:20:12;11.60;;;2.00;;
31910;SDS011;18457;52.432;16.914;2023-04-03T01:23:06;6.40;;;2.10;;
31910;SDS011;18457;52.432;16.914;2023-04-03T01:25:53;8.20;;;1.70;;
31910;SDS011;18457;52.432;16.914;2023-04-03T01:28:27;7.00;;;1.50;;
31910;SDS011;18457;52.432;16.914;2023-04-03T01:31:02;6.00;;;2.00;;
31910;SDS011;18457;52.432;16.914;2023-04-03T01:33:43;6.40;;;2.20;;
31910;SDS011;18457;52.432;16.914;2023-04-03T01:36:16;7.40;;;2.30;;
31910;SDS011;18457;52.432;16.914;2023-04-03T01:38:51;12.50;;;2.30;;
31910;SDS011;18457;52.432;16.914;2023-04-03T01:41:25;9.10;;;1.90;;
31910;SDS011;18457;52.432;16.914;2023-04-03T01:44:03;7.40;;;2.20;;
31910;SDS011;18457;52.432;16.914;2023-04-03T01:46:35;11.30;;;2.10;;
31910;SDS011;18457;52.432;16.914;2023-04-03T01:49:07;8.60;;;2.00;;
31910;SDS011;18457;52.432;16.914;2023-04-03T01:51:41;7.10;;;2.30;;
31910;SDS011;18457;52.432;16.914;2023-04-03T01:54:13;3.60;;;2.20;;
31910;SDS011;18457;52.432;16.914;2023-04-03T01:59:16;6.80;;;2.50;;
31910;SDS011;18457;52.432;16.914;2023-04-03T02:01:49;6.10;;;1.80;;
31910;SDS011;18457;52.432;16.914;2023-04-03T02:04:21;7.50;;;1.80;;
31910;SDS011;18457;52.432;16.914;2023-04-03T02:06:54;8.20;;;2.70;;
31910;SDS011;18457;52.432;16.914;2023-04-03T02:09:26;8.20;;;2.60;;
31910;SDS011;18457;52.432;16.914;2023-04-03T02:11:59;12.30;;;2.20;;
31910;SDS011;18457;52.432;16.914;2023-04-03T02:14:31;6.20;;;2.10;;
31910;SDS011;18457;52.432;16.914;2023-04-03T02:17:03;5.20;;;1.80;;
31910;SDS011;18457;52.432;16.914;2023-04-03T02:19:37;9.20;;;1.60;;
31910;SDS011;18457;52.432;16.914;2023-04-03T02:22:09;5.70;;;1.80;;
31910;SDS011;18457;52.432;16.914;2023-04-03T02:24:41;8.00;;;2.10;;
31910;SDS011;18457;52.432;16.914;2023-04-03T02:27:13;4.50;;;2.40;;
31910;SDS011;18457;52.432;16.914;2023-04-03T02:29:45;9.30;;;2.20;;
31910;SDS011;18457;52.432;16.914;2023-04-03T02:32:17;8.00;;;1.60;;
31910;SDS011;18457;52.432;16.914;2023-04-03T02:34:49;7.70;;;1.70;;
31910;SDS011;18457;52.432;16.914;2023-04-03T02:37:21;4.20;;;1.40;;
31910;SDS011;18457;52.432;16.914;2023-04-03T02:39:54;10.30;;;1.80;;
31910;SDS011;18457;52.432;16.914;2023-04-03T02:42:26;7.80;;;2.00;;
31910;SDS011;18457;52.432;16.914;2023-04-03T02:44:58;8.10;;;1.90;;
31910;SDS011;18457;52.432;16.914;2023-04-03T02:50:01;5.90;;;2.00;;
31910;SDS011;18457;52.432;16.914;2023-04-03T02:52:33;13.10;;;2.50;;
31910;SDS011;18457;52.432;16.914;2023-04-03T02:55:07;14.60;;;3.20;;
31910;SDS011;18457;52.432;16.914;2023-04-03T02:57:43;10.60;;;2.50;;
31910;SDS011;18457;52.432;16.914;2023-04-03T03:02:48;10.30;;;2.90;;
31910;SDS011;18457;52.432;16.914;2023-04-03T03:07:50;12.70;;;3.30;;
31910;SDS011;18457;52.432;16.914;2023-04-03T03:10:23;9.20;;;2.00;;
31910;SDS011;18457;52.432;16.914;2023-04-03T03:12:55;10.40;;;2.50;;
31910;SDS011;18457;52.432;16.914;2023-04-03T03:15:26;9.20;;;2.30;;
31910;SDS011;18457;52.432;16.914;2023-04-03T03:17:58;10.50;;;2.60;;
31910;SDS011;18457;52.432;16.914;2023-04-03T03:20:31;8.60;;;1.80;;
31910;SDS011;18457;52.432;16.914;2023-04-03T03:23:03;10.30;;;2.10;;
31910;SDS011;18457;52.432;16.914;2023-04-03T03:25:38;8.10;;;2.20;;
31910;SDS011;18457;52.432;16.914;2023-04-03T03:28:10;7.80;;;1.90;;
31910;SDS011;18457;52.432;16.914;2023-04-03T03:30:43;9.90;;;1.80;;
31910;SDS011;18457;52.432;16.914;2023-04-03T03:35:46;10.20;;;2.10;;
31910;SDS011;18457;52.432;16.914;2023-04-03T03:38:18;7.10;;;1.40;;
31910;SDS011;18457;52.432;16.914;2023-04-03T03:40:50;4.50;;;2.00;;
31910;SDS011;18457;52.432;16.914;2023-04-03T03:43:23;9.60;;;2.40;;
31910;SDS011;18457;52.432;16.914;2023-04-03T03:45:55;5.50;;;1.80;;
31910;SDS011;18457;52.432;16.914;2023-04-03T03:48:28;7.30;;;2.00;;
31910;SDS011;18457;52.432;16.914;2023-04-03T03:51:00;9.40;;;1.70;;
31910;SDS011;18457;52.432;16.914;2023-04-03T03:53:35;3.70;;;1.60;;
31910;SDS011;18457;52.432;16.914;2023-04-03T03:56:10;5.50;;;2.00;;
31910;SDS011;18457;52.432;16.914;2023-04-03T03:58:42;4.50;;;1.70;;
31910;SDS011;18457;52.432;16.914;2023-04-03T04:01:14;5.40;;;1.60;;
31910;SDS011;18457;52.432;16.914;2023-04-03T04:03:49;9.90;;;2.50;;
31910;SDS011;18457;52.432;16.914;2023-04-03T04:06:25;5.40;;;2.00;;
31910;SDS011;18457;52.432;16.914;2023-04-03T04:08:59;7.40;;;1.90;;
31910;SDS011;18457;52.432;16.914;2023-04-03T04:11:32;6.30;;;1.80;;
31910;SDS011;18457;52.432;16.914;2023-04-03T04:14:04;7.50;;;1.60;;
31910;SDS011;18457;52.432;16.914;2023-04-03T04:16:36;8.10;;;1.80;;
31910;SDS011;18457;52.432;16.914;2023-04-03T04:19:13;4.50;;;1.80;;
31910;SDS011;18457;52.432;16.914;2023-04-03T04:21:45;8.40;;;2.20;;
31910;SDS011;18457;52.432;16.914;2023-04-03T04:24:17;7.30;;;1.50;;
31910;SDS011;18457;52.432;16.914;2023-04-03T04:26:52;5.00;;;2.10;;
31910;SDS011;18457;52.432;16.914;2023-04-03T04:31:55;5.80;;;2.30;;
31910;SDS011;18457;52.432;16.914;2023-04-03T04:34:27;10.30;;;2.80;;
31910;SDS011;18457;52.432;16.914;2023-04-03T04:37:00;10.20;;;2.30;;
31910;SDS011;18457;52.432;16.914;2023-04-03T04:39:33;7.40;;;1.80;;
31910;SDS011;18457;52.432;16.914;2023-04-03T04:42:05;8.00;;;2.10;;
31910;SDS011;18457;52.432;16.914;2023-04-03T04:44:45;6.60;;;2.40;;
31910;SDS011;18457;52.432;16.914;2023-04-03T04:47:17;12.30;;;2.30;;
31910;SDS011;18457;52.432;16.914;2023-04-03T04:49:50;9.80;;;1.90;;
31910;SDS011;18457;52.432;16.914;2023-04-03T04:52:23;6.50;;;1.90;;
31910;SDS011;18457;52.432;16.914;2023-04-03T04:54:55;10.00;;;1.60;;
31910;SDS011;18457;52.432;16.914;2023-04-03T04:59:59;6.50;;;2.60;;
31910;SDS011;18457;52.432;16.914;2023-04-03T05:02:32;7.80;;;2.00;;
31910;SDS011;18457;52.432;16.914;2023-04-03T05:05:05;8.50;;;2.00;;
31910;SDS011;18457;52.432;16.914;2023-04-03T05:07:39;6.90;;;1.90;;
31910;SDS011;18457;52.432;16.914;2023-04-03T05:10:11;5.80;;;1.90;;
31910;SDS011;18457;52.432;16.914;2023-04-03T05:15:14;3.90;;;1.80;;
31910;SDS011;18457;52.432;16.914;2023-04-03T05:17:47;5.90;;;1.80;;
31910;SDS011;18457;52.432;16.914;2023-04-03T05:20:20;4.40;;;1.80;;
31910;SDS011;18457;52.432;16.914;2023-04-03T05:22:52;8.70;;;2.00;;
31910;SDS011;18457;52.432;16.914;2023-04-03T05:25:24;11.80;;;1.80;;
31910;SDS011;18457;52.432;16.914;2023-04-03T05:27:56;6.90;;;1.80;;
31910;SDS011;18457;52.432;16.914;2023-04-03T05:30:28;10.20;;;2.00;;
31910;SDS011;18457;52.432;16.914;2023-04-03T05:33:01;6.60;;;2.00;;
31910;SDS011;18457;52.432;16.914;2023-04-03T05:35:41;8.80;;;1.50;;
31910;SDS011;18457;52.432;16.914;2023-04-03T05:38:18;8.80;;;2.20;;
31910;SDS011;18457;52.432;16.914;2023-04-03T05:40:52;12.40;;;2.40;;
31910;SDS011;18457;52.432;16.914;2023-04-03T05:43:24;6.50;;;1.20;;
31910;SDS011;18457;52.432;16.914;2023-04-03T05:45:56;11.40;;;2.30;;
31910;SDS011;18457;52.432;16.914;2023-04-03T05:50:59;8.20;;;2.10;;
31910;SDS011;18457;52.432;16.914;2023-04-03T05:53:33;10.90;;;1.90;;
31910;SDS011;18457;52.432;16.914;2023-04-03T05:56:07;7.70;;;2.40;;
31910;SDS011;18457;52.432;16.914;2023-04-03T05:58:41;9.80;;;2.20;;
31910;SDS011;18457;52.432;16.914;2023-04-03T06:01:13;7.30;;;1.90;;
31910;SDS011;18457;52.432;16.914;2023-04-03T06:03:45;11.40;;;2.20;;
31910;SDS011;18457;52.432;16.914;2023-04-03T06:08:49;15.50;;;2.50;;
31910;SDS011;18457;52.432;16.914;2023-04-03T06:11:21;11.30;;;1.40;;
31910;SDS011;18457;52.432;16.914;2023-04-03T06:13:53;10.70;;;2.80;;
31910;SDS011;18457;52.432;16.914;2023-04-03T06:16:25;12.60;;;2.10;;
31910;SDS011;18457;52.432;16.914;2023-04-03T06:21:29;10.40;;;2.00;;
31910;SDS011;18457;52.432;16.914;2023-04-03T06:24:02;7.70;;;2.10;;
31910;SDS011;18457;52.432;16.914;2023-04-03T06:26:35;13.40;;;2.50;;
31910;SDS011;18457;52.432;16.914;2023-04-03T06:29:07;12.40;;;2.50;;
31910;SDS011;18457;52.432;16.914;2023-04-03T06:31:40;7.80;;;2.70;;
31910;SDS011;18457;52.432;16.914;2023-04-03T06:34:13;15.80;;;4.10;;
31910;SDS011;18457;52.432;16.914;2023-04-03T06:36:46;17.30;;;6.50;;
31910;SDS011;18457;52.432;16.914;2023-04-03T06:39:20;44.20;;;12.40;;
31910;SDS011;18457;52.432;16.914;2023-04-03T06:41:52;39.00;;;12.20;;
31910;SDS011;18457;52.432;16.914;2023-04-03T06:44:30;30.50;;;10.70;;
31910;SDS011;18457;52.432;16.914;2023-04-03T06:47:05;7.20;;;3.00;;
31910;SDS011;18457;52.432;16.914;2023-04-03T06:49:37;5.40;;;2.00;;
31910;SDS011;18457;52.432;16.914;2023-04-03T06:52:10;10.80;;;2.70;;
31910;SDS011;18457;52.432;16.914;2023-04-03T06:54:44;5.10;;;1.70;;
31910;SDS011;18457;52.432;16.914;2023-04-03T06:57:16;4.50;;;1.60;;
31910;SDS011;18457;52.432;16.914;2023-04-03T06:59:48;7.30;;;2.20;;
31910;SDS011;18457;52.432;16.914;2023-04-03T07:02:20;8.40;;;2.90;;
31910;SDS011;18457;52.432;16.914;2023-04-03T07:04:53;12.20;;;4.50;;
31910;SDS011;18457;52.432;16.914;2023-04-03T07:07:25;22.60;;;8.70;;
31910;SDS011;18457;52.432;16.914;2023-04-03T07:09:57;11.50;;;5.80;;
31910;SDS011;18457;52.432;16.914;2023-04-03T07:12:29;8.70;;;3.80;;
31910;SDS011;18457;52.432;16.914;2023-04-03T07:15:01;26.30;;;6.80;;
31910;SDS011;18457;52.432;16.914;2023-04-03T07:17:34;24.60;;;8.20;;
31910;SDS011;18457;52.432;16.914;2023-04-03T07:20:07;16.90;;;5.60;;
31910;SDS011;18457;52.432;16.914;2023-04-03T07:22:40;22.40;;;8.30;;
31910;SDS011;18457;52.432;16.914;2023-04-03T07:25:12;10.10;;;4.70;;
31910;SDS011;18457;52.432;16.914;2023-04-03T07:27:45;16.20;;;4.10;;
31910;SDS011;18457;52.432;16.914;2023-04-03T07:30:18;16.00;;;4.00;;
31910;SDS011;18457;52.432;16.914;2023-04-03T07:32:50;6.70;;;3.00;;
31910;SDS011;18457;52.432;16.914;2023-04-03T07:35:22;9.60;;;2.70;;
31910;SDS011;18457;52.432;16.914;2023-04-03T07:37:53;20.40;;;4.90;;
31910;SDS011;18457;52.432;16.914;2023-04-03T07:40:26;11.60;;;3.40;;
31910;SDS011;18457;52.432;16.914;2023-04-03T07:42:59;17.60;;;4.20;;
31910;SDS011;18457;52.432;16.914;2023-04-03T07:45:31;12.60;;;4.20;;
31910;SDS011;18457;52.432;16.914;2023-04-03T07:48:05;12.60;;;3.80;;
31910;SDS011;18457;52.432;16.914;2023-04-03T07:50:39;6.10;;;2.30;;
31910;SDS011;18457;52.432;16.914;2023-04-03T07:53:11;7.20;;;1.90;;
31910;SDS011;18457;52.432;16.914;2023-04-03T07:55:45;4.10;;;1.90;;
31910;SDS011;18457;52.432;16.914;2023-04-03T07:58:20;5.20;;;2.60;;
31910;SDS011;18457;52.432;16.914;2023-04-03T08:00:52;4.90;;;1.10;;
31910;SDS011;18457;52.432;16.914;2023-04-03T08:06:00;7.00;;;2.50;;
31910;SDS011;18457;52.432;16.914;2023-04-03T08:08:35;5.90;;;2.20;;
31910;SDS011;18457;52.432;16.914;2023-04-03T08:11:07;9.00;;;2.30;;
31910;SDS011;18457;52.432;16.914;2023-04-03T08:16:11;5.50;;;2.40;;
31910;SDS011;18457;52.432;16.914;2023-04-03T08:18:46;10.70;;;2.10;;
31910;SDS011;18457;52.432;16.914;2023-04-03T08:21:19;7.80;;;2.30;;
31910;SDS011;18457;52.432;16.914;2023-04-03T08:23:51;8.70;;;2.40;;
31910;SDS011;18457;52.432;16.914;2023-04-03T08:26:22;7.30;;;1.50;;
31910;SDS011;18457;52.432;16.914;2023-04-03T08:28:55;6.80;;;2.30;;
31910;SDS011;18457;52.432;16.914;2023-04-03T08:31:27;7.50;;;1.70;;
31910;SDS011;18457;52.432;16.914;2023-04-03T08:34:00;7.80;;;1.90;;
31910;SDS011;18457;52.432;16.914;2023-04-03T08:36:31;6.80;;;2.20;;
31910;SDS011;18457;52.432;16.914;2023-04-03T08:39:04;7.90;;;2.30;;
31910;SDS011;18457;52.432;16.914;2023-04-03T08:41:37;4.60;;;1.90;;
31910;SDS011;18457;52.432;16.914;2023-04-03T08:44:20;7.60;;;2.60;;
31910;SDS011;18457;52.432;16.914;2023-04-03T08:47:04;5.50;;;1.80;;
31910;SDS011;18457;52.432;16.914;2023-04-03T08:49:48;6.20;;;2.30;;
31910;SDS011;18457;52.432;16.914;2023-04-03T08:52:23;8.20;;;2.40;;
31910;SDS011;18457;52.432;16.914;2023-04-03T08:55:05;4.90;;;2.30;;
31910;SDS011;18457;52.432;16.914;2023-04-03T08:57:45;8.10;;;2.30;;
31910;SDS011;18457;52.432;16.914;2023-04-03T09:00:22;11.30;;;2.20;;
31910;SDS011;18457;52.432;16.914;2023-04-03T09:02:57;2.90;;;1.80;;
31910;SDS011;18457;52.432;16.914;2023-04-03T09:05:35;4.30;;;1.90;;
31910;SDS011;18457;52.432;16.914;2023-04-03T09:08:17;5.60;;;2.80;;
31910;SDS011;18457;52.432;16.914;2023-04-03T09:10:59;6.30;;;2.40;;
31910;SDS011;18457;52.432;16.914;2023-04-03T09:13:41;4.00;;;1.70;;
31910;SDS011;18457;52.432;16.914;2023-04-03T09:16:25;4.10;;;1.90;;
31910;SDS011;18457;52.432;16.914;2023-04-03T09:19:07;3.50;;;1.60;;
31910;SDS011;18457;52.432;16.914;2023-04-03T09:21:46;4.60;;;1.90;;
31910;SDS011;18457;52.432;16.914;2023-04-03T09:24:18;9.40;;;1.90;;
31910;SDS011;18457;52.432;16.914;2023-04-03T09:26:54;6.80;;;1.70;;
31910;SDS011;18457;52.432;16.914;2023-04-03T09:29:31;4.00;;;1.90;;
31910;SDS011;18457;52.432;16.914;2023-04-03T09:32:18;8.40;;;2.10;;
31910;SDS011;18457;52.432;16.914;2023-04-03T09:34:52;12.00;;;2.00;;
31910;SDS011;18457;52.432;16.914;2023-04-03T09:37:37;4.40;;;1.80;;
31910;SDS011;18457;52.432;16.914;2023-04-03T09:45:52;4.80;;;1.90;;
31910;SDS011;18457;52.432;16.914;2023-04-03T09:48:26;5.50;;;1.80;;
31910;SDS011;18457;52.432;16.914;2023-04-03T09:51:00;6.90;;;2.00;;
31910;SDS011;18457;52.432;16.914;2023-04-03T09:53:35;7.20;;;2.30;;
31910;SDS011;18457;52.432;16.914;2023-04-03T09:56:18;6.20;;;2.10;;
31910;SDS011;18457;52.432;16.914;2023-04-03T09:59:02;4.30;;;1.90;;
31910;SDS011;18457;52.432;16.914;2023-04-03T10:01:55;12.00;;;3.80;;
31910;SDS011;18457;52.432;16.914;2023-04-03T10:04:38;5.00;;;1.90;;
31910;SDS011;18457;52.432;16.914;2023-04-03T10:07:27;9.40;;;3.30;;
31910;SDS011;18457;52.432;16.914;2023-04-03T10:10:16;11.60;;;3.10;;
31910;SDS011;18457;52.432;16.914;2023-04-03T10:13:03;3.40;;;2.20;;
31910;SDS011;18457;52.432;16.914;2023-04-03T10:15:41;2.80;;;1.70;;
31910;SDS011;18457;52.432;16.914;2023-04-03T10:18:21;3.90;;;1.90;;
31910;SDS011;18457;52.432;16.914;2023-04-03T10:21:04;5.60;;;1.80;;
31910;SDS011;18457;52.432;16.914;2023-04-03T10:23:57;7.00;;;2.10;;
31910;SDS011;18457;52.432;16.914;2023-04-03T10:26:37;8.20;;;2.70;;
31910;SDS011;18457;52.432;16.914;2023-04-03T10:29:19;11.80;;;2.80;;
31910;SDS011;18457;52.432;16.914;2023-04-03T10:32:22;5.00;;;2.40;;
31910;SDS011;18457;52.432;16.914;2023-04-03T10:35:11;9.60;;;2.10;;
31910;SDS011;18457;52.432;16.914;2023-04-03T10:37:56;4.60;;;2.20;;
31910;SDS011;18457;52.432;16.914;2023-04-03T10:40:37;6.70;;;2.50;;
31910;SDS011;18457;52.432;16.914;2023-04-03T10:43:20;5.70;;;2.40;;
31910;SDS011;18457;52.432;16.914;2023-04-03T10:46:02;7.90;;;2.50;;
31910;SDS011;18457;52.432;16.914;2023-04-03T10:48:47;5.90;;;2.90;;
31910;SDS011;18457;52.432;16.914;2023-04-03T10:51:29;34.10;;;14.40;;
31910;SDS011;18457;52.432;16.914;2023-04-03T10:54:12;16.00;;;6.90;;
31910;SDS011;18457;52.432;16.914;2023-04-03T10:56:50;35.00;;;12.20;;
31910;SDS011;18457;52.432;16.914;2023-04-03T10:59:40;52.10;;;16.40;;
31910;SDS011;18457;52.432;16.914;2023-04-03T11:02:16;32.10;;;12.10;;
31910;SDS011;18457;52.432;16.914;2023-04-03T11:04:55;9.80;;;4.70;;
31910;SDS011;18457;52.432;16.914;2023-04-03T11:07:34;10.50;;;4.00;;
31910;SDS011;18457;52.432;16.914;2023-04-03T11:10:11;11.40;;;2.40;;
31910;SDS011;18457;52.432;16.914;2023-04-03T11:12:48;6.60;;;3.20;;
31910;SDS011;18457;52.432;16.914;2023-04-03T11:15:28;5.70;;;2.40;;
31910;SDS011;18457;52.432;16.914;2023-04-03T11:18:04;5.10;;;2.00;;
31910;SDS011;18457;52.432;16.914;2023-04-03T11:20:40;5.20;;;2.20;;
31910;SDS011;18457;52.432;16.914;2023-04-03T11:23:21;10.40;;;2.30;;
31910;SDS011;18457;52.432;16.914;2023-04-03T11:26:00;3.60;;;1.80;;
31910;SDS011;18457;52.432;16.914;2023-04-03T11:28:38;5.60;;;2.20;;
31910;SDS011;18457;52.432;16.914;2023-04-03T11:31:15;12.60;;;2.60;;
31910;SDS011;18457;52.432;16.914;2023-04-03T11:34:04;7.30;;;2.60;;
31910;SDS011;18457;52.432;16.914;2023-04-03T11:36:47;4.70;;;2.60;;
31910;SDS011;18457;52.432;16.914;2023-04-03T11:39:25;8.10;;;2.90;;
31910;SDS011;18457;52.432;16.914;2023-04-03T11:45:22;3.90;;;1.90;;
31910;SDS011;18457;52.432;16.914;2023-04-03T11:48:00;12.40;;;2.60;;
31910;SDS011;18457;52.432;16.914;2023-04-03T11:50:52;5.30;;;2.20;;
31910;SDS011;18457;52.432;16.914;2023-04-03T11:53:29;6.20;;;1.90;;
31910;SDS011;18457;52.432;16.914;2023-04-03T11:56:26;8.00;;;2.70;;
31910;SDS011;18457;52.432;16.914;2023-04-03T11:59:21;4.10;;;2.20;;
31910;SDS011;18457;52.432;16.914;2023-04-03T12:01:57;5.20;;;2.40;;
31910;SDS011;18457;52.432;16.914;2023-04-03T12:07:14;10.90;;;4.00;;
31910;SDS011;18457;52.432;16.914;2023-04-03T12:09:58;13.40;;;4.80;;
31910;SDS011;18457;52.432;16.914;2023-04-03T12:12:33;11.70;;;4.90;;
31910;SDS011;18457;52.432;16.914;2023-04-03T12:18:37;34.60;;;11.50;;
31910;SDS011;18457;52.432;16.914;2023-04-03T12:21:13;41.20;;;12.90;;
31910;SDS011;18457;52.432;16.914;2023-04-03T12:24:04;39.00;;;12.00;;
31910;SDS011;18457;52.432;16.914;2023-04-03T12:27:02;29.60;;;9.10;;
31910;SDS011;18457;52.432;16.914;2023-04-03T12:29:43;22.30;;;8.60;;
31910;SDS011;18457;52.432;16.914;2023-04-03T12:35:39;13.10;;;6.00;;
31910;SDS011;18457;52.432;16.914;2023-04-03T12:38:23;23.10;;;8.50;;
31910;SDS011;18457;52.432;16.914;2023-04-03T12:41:21;12.30;;;5.30;;
31910;SDS011;18457;52.432;16.914;2023-04-03T12:44:01;10.20;;;3.90;;
31910;SDS011;18457;52.432;16.914;2023-04-03T12:46:51;20.10;;;7.70;;
31910;SDS011;18457;52.432;16.914;2023-04-03T12:49:26;19.00;;;6.90;;
31910;SDS011;18457;52.432;16.914;2023-04-03T12:52:12;10.90;;;5.00;;
31910;SDS011;18457;52.432;16.914;2023-04-03T12:55:00;17.30;;;7.70;;
31910;SDS011;18457;52.432;16.914;2023-04-03T12:57:39;7.60;;;3.20;;
31910;SDS011;18457;52.432;16.914;2023-04-03T13:00:25;9.10;;;4.60;;
31910;SDS011;18457;52.432;16.914;2023-04-03T13:03:02;22.20;;;9.50;;
31910;SDS011;18457;52.432;16.914;2023-04-03T13:05:36;12.00;;;5.80;;
31910;SDS011;18457;52.432;16.914;2023-04-03T13:08:10;13.70;;;5.10;;
31910;SDS011;18457;52.432;16.914;2023-04-03T13:10:47;14.20;;;5.20;;
31910;SDS011;18457;52.432;16.914;2023-04-03T13:13:23;14.70;;;7.40;;
31910;SDS011;18457;52.432;16.914;2023-04-03T13:15:55;24.10;;;8.20;;
31910;SDS011;18457;52.432;16.914;2023-04-03T13:18:30;6.60;;;3.40;;
31910;SDS011;18457;52.432;16.914;2023-04-03T13:21:05;4.40;;;2.20;;
31910;SDS011;18457;52.432;16.914;2023-04-03T13:23:47;9.80;;;2.60;;
31910;SDS011;18457;52.432;16.914;2023-04-03T13:26:35;10.90;;;4.00;;
31910;SDS011;18457;52.432;16.914;2023-04-03T13:29:17;12.30;;;5.00;;
31910;SDS011;18457;52.432;16.914;2023-04-03T13:32:01;16.70;;;7.90;;
31910;SDS011;18457;52.432;16.914;2023-04-03T13:34:37;9.30;;;3.40;;
31910;SDS011;18457;52.432;16.914;2023-04-03T13:37:23;5.70;;;3.50;;
31910;SDS011;18457;52.432;16.914;2023-04-03T13:40:01;7.20;;;3.90;;
31910;SDS011;18457;52.432;16.914;2023-04-03T13:42:40;14.40;;;3.90;;
31910;SDS011;18457;52.432;16.914;2023-04-03T13:45:20;7.30;;;3.30;;
31910;SDS011;18457;52.432;16.914;2023-04-03T13:48:08;7.80;;;3.70;;
31910;SDS011;18457;52.432;16.914;2023-04-03T13:50:54;6.90;;;3.20;;
31910;SDS011;18457;52.432;16.914;2023-04-03T13:53:32;12.40;;;4.20;;
31910;SDS011;18457;52.432;16.914;2023-04-03T13:56:17;15.90;;;3.80;;
31910;SDS011;18457;52.432;16.914;2023-04-03T13:59:00;9.90;;;3.60;;
31910;SDS011;18457;52.432;16.914;2023-04-03T14:01:51;7.90;;;3.30;;
31910;SDS011;18457;52.432;16.914;2023-04-03T14:04:26;4.60;;;2.20;;
31910;SDS011;18457;52.432;16.914;2023-04-03T14:07:01;3.20;;;2.00;;
31910;SDS011;18457;52.432;16.914;2023-04-03T14:09:33;4.80;;;2.20;;
31910;SDS011;18457;52.432;16.914;2023-04-03T14:12:06;3.80;;;2.20;;
31910;SDS011;18457;52.432;16.914;2023-04-03T14:14:59;8.00;;;2.20;;
31910;SDS011;18457;52.432;16.914;2023-04-03T14:17:33;4.20;;;2.50;;
31910;SDS011;18457;52.432;16.914;2023-04-03T14:20:09;3.70;;;2.40;;
31910;SDS011;18457;52.432;16.914;2023-04-03T14:22:44;5.50;;;2.50;;
31910;SDS011;18457;52.432;16.914;2023-04-03T14:25:18;4.10;;;2.30;;
31910;SDS011;18457;52.432;16.914;2023-04-03T14:27:52;5.00;;;2.20;;
31910;SDS011;18457;52.432;16.914;2023-04-03T14:30:26;6.00;;;2.30;;
31910;SDS011;18457;52.432;16.914;2023-04-03T14:33:00;6.70;;;2.20;;
31910;SDS011;18457;52.432;16.914;2023-04-03T14:35:32;10.60;;;2.50;;
31910;SDS011;18457;52.432;16.914;2023-04-03T14:38:06;5.30;;;2.70;;
31910;SDS011;18457;52.432;16.914;2023-04-03T14:40:51;5.50;;;2.10;;
31910;SDS011;18457;52.432;16.914;2023-04-03T14:43:31;5.90;;;2.40;;
31910;SDS011;18457;52.432;16.914;2023-04-03T14:46:03;9.80;;;3.40;;
31910;SDS011;18457;52.432;16.914;2023-04-03T14:48:42;3.50;;;2.20;;
31910;SDS011;18457;52.432;16.914;2023-04-03T14:51:15;3.10;;;2.00;;
31910;SDS011;18457;52.432;16.914;2023-04-03T14:53:47;3.60;;;2.80;;
31910;SDS011;18457;52.432;16.914;2023-04-03T14:56:21;2.90;;;1.90;;
31910;SDS011;18457;52.432;16.914;2023-04-03T14:58:57;4.40;;;2.10;;
31910;SDS011;18457;52.432;16.914;2023-04-03T15:01:32;3.80;;;1.80;;
31910;SDS011;18457;52.432;16.914;2023-04-03T15:04:08;6.00;;;2.00;;
31910;SDS011;18457;52.432;16.914;2023-04-03T15:06:42;2.70;;;1.90;;
31910;SDS011;18457;52.432;16.914;2023-04-03T15:09:18;8.20;;;2.40;;
31910;SDS011;18457;52.432;16.914;2023-04-03T15:11:53;7.30;;;2.40;;
31910;SDS011;18457;52.432;16.914;2023-04-03T15:14:25;4.30;;;2.10;;
31910;SDS011;18457;52.432;16.914;2023-04-03T15:17:05;5.80;;;2.20;;
31910;SDS011;18457;52.432;16.914;2023-04-03T15:19:44;5.90;;;2.20;;
31910;SDS011;18457;52.432;16.914;2023-04-03T15:22:17;6.50;;;2.00;;
31910;SDS011;18457;52.432;16.914;2023-04-03T15:27:20;3.50;;;2.20;;
31910;SDS011;18457;52.432;16.914;2023-04-03T15:30:05;5.50;;;2.30;;
31910;SDS011;18457;52.432;16.914;2023-04-03T15:32:54;8.90;;;3.40;;
31910;SDS011;18457;52.432;16.914;2023-04-03T15:35:27;11.30;;;4.30;;
31910;SDS011;18457;52.432;16.914;2023-04-03T15:38:28;8.40;;;3.40;;
31910;SDS011;18457;52.432;16.914;2023-04-03T15:41:00;8.10;;;2.30;;
31910;SDS011;18457;52.432;16.914;2023-04-03T15:43:55;8.60;;;2.70;;
31910;SDS011;18457;52.432;16.914;2023-04-03T15:46:51;7.90;;;2.60;;
31910;SDS011;18457;52.432;16.914;2023-04-03T15:49:31;5.00;;;2.70;;
31910;SDS011;18457;52.432;16.914;2023-04-03T15:52:46;7.10;;;3.00;;
31910;SDS011;18457;52.432;16.914;2023-04-03T15:55:23;6.60;;;2.80;;
31910;SDS011;18457;52.432;16.914;2023-04-03T15:57:57;7.90;;;2.90;;
31910;SDS011;18457;52.432;16.914;2023-04-03T16:00:30;3.90;;;2.20;;
31910;SDS011;18457;52.432;16.914;2023-04-03T16:03:05;6.10;;;2.50;;
31910;SDS011;18457;52.432;16.914;2023-04-03T16:05:41;6.30;;;2.50;;
31910;SDS011;18457;52.432;16.914;2023-04-03T16:08:14;5.50;;;2.60;;
31910;SDS011;18457;52.432;16.914;2023-04-03T16:10:47;7.60;;;2.50;;
31910;SDS011;18457;52.432;16.914;2023-04-03T16:13:19;7.70;;;2.10;;
31910;SDS011;18457;52.432;16.914;2023-04-03T16:15:51;2.90;;;1.90;;
31910;SDS011;18457;52.432;16.914;2023-04-03T16:18:25;5.40;;;2.20;;
31910;SDS011;18457;52.432;16.914;2023-04-03T16:20:57;3.80;;;2.10;;
31910;SDS011;18457;52.432;16.914;2023-04-03T16:23:29;12.60;;;4.30;;
31910;SDS011;18457;52.432;16.914;2023-04-03T16:26:01;11.00;;;4.40;;